Time;durP1;ratioP1;P1;durP2;ratioP2;P2;SDS_P1;SDS_P2;PMS_P1;PMS_P2;Temp;Humidity;BMP_temperature;BMP_pressure;BME280_temperature;BME280_humidity;BME280_pressure;Samples;Min_cycle;Max_cycle;Signal;HPM_P1;HPM_P2
2020/12/11 00:00:55;;;;;;;0.70;0.38;;;;;;;5.13;100.00;97118.78;5054075;28;20073;-75
2020/12/11 00:03:59;;;;;;;0.73;0.40;;;;;;;5.12;100.00;97103.47;5054228;28;20052;-75
2020/12/11 00:07:01;;;;;;;1.13;0.55;;;;;;;5.13;100.00;97107.72;5054240;28;20098;-75
2020/12/11 00:10:05;;;;;;;0.60;0.20;;;;;;;5.13;100.00;97102.94;5053922;28;20040;-78
2020/12/11 00:13:08;;;;;;;0.65;0.57;;;;;;;5.13;100.00;97091.91;5053717;28;20138;-77
2020/12/11 00:16:11;;;;;;;0.43;0.32;;;;;;;5.13;100.00;97091.91;5053563;28;20090;-77
2020/12/11 00:19:14;;;;;;;1.95;0.63;;;;;;;5.16;100.00;97092.91;5041851;28;20078;-77
2020/12/11 00:22:17;;;;;;;1.38;0.38;;;;;;;5.16;100.00;97077.13;5054154;28;20094;-77
2020/12/11 00:25:20;;;;;;;0.22;0.20;;;;;;;5.16;100.00;97068.09;5053474;28;20056;-77
2020/12/11 00:28:23;;;;;;;0.95;0.60;;;;;;;5.18;100.00;97076.59;5054034;28;20051;-77
2020/12/11 00:31:26;;;;;;;0.90;0.35;;;;;;;5.18;100.00;97073.84;5054247;28;20056;-77
2020/12/11 00:34:30;;;;;;;0.90;0.43;;;;;;;5.20;100.00;97074.84;5054199;28;20079;-76
2020/12/11 00:37:34;;;;;;;0.30;0.17;;;;;;;5.19;100.00;97073.34;5053837;28;20677;-77
2020/12/11 00:40:37;;;;;;;1.63;0.60;;;;;;;5.19;100.00;97067.09;5054040;28;20058;-77
2020/12/11 00:43:40;;;;;;;2.53;0.85;;;;;;;5.21;100.00;97064.56;5053781;28;20455;-77
2020/12/11 00:46:43;;;;;;;1.05;0.52;;;;;;;5.20;100.00;97065.81;5053655;28;20067;-77
2020/12/11 00:49:46;;;;;;;2.65;0.20;;;;;;;5.23;100.00;97051.00;5053930;28;20044;-77
2020/12/11 00:52:49;;;;;;;0.30;0.30;;;;;;;5.23;100.00;97051.00;5053201;28;20051;-77
2020/12/11 00:55:52;;;;;;;0.10;0.10;;;;;;;5.25;100.00;97048.50;5053780;28;20095;-77
2020/12/11 00:58:55;;;;;;;2.75;0.30;;;;;;;5.25;100.00;97042.97;5053459;28;20186;-78
2020/12/11 01:01:58;;;;;;;0.22;0.15;;;;;;;5.25;100.00;97031.94;5053465;28;20060;-77
2020/12/11 01:05:01;;;;;;;0.30;0.10;;;;;;;5.25;100.00;97015.41;5053492;28;20120;-77
2020/12/11 01:08:05;;;;;;;1.05;0.10;;;;;;;5.26;100.00;97011.38;5053451;28;20048;-77
2020/12/11 01:11:09;;;;;;;0.63;0.20;;;;;;;5.29;100.00;97010.34;5053099;28;20052;-77
2020/12/11 01:14:12;;;;;;;0.13;0.10;;;;;;;5.31;100.00;97007.84;5053312;28;20048;-77
2020/12/11 01:17:15;;;;;;;0.35;0.10;;;;;;;5.31;100.00;97005.06;5053408;28;20048;-77
2020/12/11 01:20:18;;;;;;;0.30;0.22;;;;;;;5.32;100.00;97003.81;5053054;28;20068;-77
2020/12/11 01:23:21;;;;;;;0.85;0.35;;;;;;;5.32;100.00;96998.31;5052941;28;20063;-77
2020/12/11 01:26:24;;;;;;;0.32;0.32;;;;;;;5.34;100.00;96990.28;5052926;28;20075;-77
2020/12/11 01:29:27;;;;;;;1.20;0.45;;;;;;;5.35;100.00;96980.72;5053025;28;20043;-77
2020/12/11 01:32:33;;;;;;;1.20;0.57;;;;;;;5.35;100.00;96986.25;5052792;28;20090;-77
2020/12/11 01:35:36;;;;;;;0.40;0.22;;;;;;;5.35;100.00;96986.25;5052722;28;20083;-77
2020/12/11 01:38:39;;;;;;;4.45;0.70;;;;;;;5.36;100.00;96983.00;5052384;28;20075;-77
2020/12/11 01:41:43;;;;;;;0.60;0.25;;;;;;;5.36;100.00;96982.22;5052553;28;20048;-77
2020/12/11 01:44:53;;;;;;;2.47;0.50;;;;;;;5.36;100.00;96966.44;5053036;28;20067;-77
2020/12/11 01:47:57;;;;;;;2.70;0.60;;;;;;;5.37;100.00;96969.94;5052913;28;20099;-78
2020/12/11 01:51:00;;;;;;;1.77;0.45;;;;;;;5.37;100.00;96967.91;5052754;28;20052;-77
2020/12/11 01:54:04;;;;;;;0.30;0.10;;;;;;;5.38;100.00;96963.16;5040399;28;20098;-78
2020/12/11 01:57:19;;;;;;;1.55;0.57;;;;;;;5.40;100.00;96963.38;5052563;28;20047;-77
2020/12/11 02:00:23;;;;;;;1.67;0.40;;;;;;;5.41;100.00;96962.16;5052504;28;20055;-78
2020/12/11 02:03:26;;;;;;;0.68;0.30;;;;;;;5.41;100.00;96951.09;5051981;28;20478;-77
2020/12/11 02:06:29;;;;;;;2.47;0.40;;;;;;;5.44;100.00;96946.56;5051680;28;20048;-76
2020/12/11 02:09:34;;;;;;;1.00;0.60;;;;;;;5.45;100.00;96937.78;5052093;28;20048;-78
2020/12/11 02:12:37;;;;;;;0.35;0.30;;;;;;;5.46;100.00;96941.28;5012412;28;20112;-77
2020/12/11 02:15:41;;;;;;;1.73;0.30;;;;;;;5.48;100.00;96933.97;4992938;28;20053;-77
2020/12/11 02:18:43;;;;;;;1.90;0.82;;;;;;;5.51;100.00;96932.97;4992803;28;20496;-77
2020/12/11 02:21:46;;;;;;;3.17;1.05;;;;;;;5.52;100.00;96923.44;4992732;28;20403;-77
2020/12/11 02:24:50;;;;;;;3.05;0.60;;;;;;;5.53;100.00;96930.44;4992829;28;20050;-75
2020/12/11 02:27:52;;;;;;;2.78;0.47;;;;;;;5.52;100.00;96928.97;4993222;28;20109;-77
2020/12/11 02:30:57;;;;;;;2.17;0.30;;;;;;;5.53;100.00;96919.41;4991691;28;20096;-76
2020/12/11 02:34:00;;;;;;;2.15;0.90;;;;;;;5.56;100.00;96928.66;4992484;28;20128;-76
2020/12/11 02:37:03;;;;;;;2.72;0.40;;;;;;;5.58;100.00;96929.66;4992568;28;20509;-77
2020/12/11 02:40:07;;;;;;;6.70;0.90;;;;;;;5.57;100.00;96919.88;4994815;28;20077;-75
2020/12/11 02:43:09;;;;;;;2.35;0.52;;;;;;;5.59;100.00;96911.81;5005852;28;20053;-72
2020/12/11 02:46:13;;;;;;;0.47;0.22;;;;;;;5.61;100.00;96914.09;5011967;28;20568;-74
2020/12/11 02:49:16;;;;;;;2.88;0.63;;;;;;;5.62;100.00;96915.56;5014865;28;20084;-74
2020/12/11 02:52:18;;;;;;;2.00;0.50;;;;;;;5.63;100.00;96911.56;5015572;28;20060;-75
2020/12/11 02:55:22;;;;;;;7.88;0.80;;;;;;;5.62;100.00;96902.53;5015229;28;20100;-71
2020/12/11 02:58:25;;;;;;;2.45;0.45;;;;;;;5.63;100.00;96901.25;5015379;28;20108;-71
2020/12/11 03:01:28;;;;;;;1.85;0.70;;;;;;;5.64;100.00;96905.53;5014901;28;20113;-73
2020/12/11 03:04:31;;;;;;;2.30;0.80;;;;;;;5.63;100.00;96895.72;5015669;28;20096;-73
2020/12/11 03:07:34;;;;;;;1.35;0.68;;;;;;;5.65;100.00;96893.19;5015484;28;20065;-74
2020/12/11 03:10:36;;;;;;;0.47;0.20;;;;;;;5.66;100.00;96886.44;5021761;28;20087;-73
2020/12/11 03:13:39;;;;;;;3.65;0.47;;;;;;;5.67;100.00;96885.19;5054881;28;20056;-74
2020/12/11 03:16:42;;;;;;;5.97;1.58;;;;;;;5.68;100.00;96881.13;5054762;28;20455;-74
2020/12/11 03:19:45;;;;;;;7.20;0.88;;;;;;;5.69;100.00;96871.59;5042213;28;20063;-74
2020/12/11 03:22:53;;;;;;;5.32;0.75;;;;;;;5.70;100.00;96877.84;5054733;28;20496;-74
2020/12/11 03:25:56;;;;;;;2.92;0.75;;;;;;;5.70;100.00;96867.56;5054688;28;20171;-72
2020/12/11 03:28:59;;;;;;;0.98;0.35;;;;;;;5.72;100.00;96862.28;5034113;28;20061;-73
2020/12/11 03:32:02;;;;;;;1.23;0.25;;;;;;;5.74;100.00;96856.97;5035309;28;20111;-74
2020/12/11 03:35:05;;;;;;;2.30;0.77;;;;;;;5.76;100.00;96853.72;5034939;28;20057;-74
2020/12/11 03:38:08;;;;;;;4.40;0.52;;;;;;;5.77;100.00;96853.19;5034496;28;20072;-73
2020/12/11 03:41:15;;;;;;;2.30;0.70;;;;;;;5.77;100.00;96844.91;5035077;28;20064;-73
2020/12/11 03:44:19;;;;;;;7.30;0.90;;;;;;;5.79;100.00;96844.41;5034866;28;20057;-74
2020/12/11 03:47:22;;;;;;;5.15;1.05;;;;;;;5.82;100.00;96841.38;5034857;28;20048;-74
2020/12/11 03:50:24;;;;;;;2.92;0.70;;;;;;;5.81;100.00;96828.81;5034959;28;20607;-73
2020/12/11 03:53:27;;;;;;;1.15;0.40;;;;;;;5.81;100.00;96817.78;5034847;28;20052;-74
2020/12/11 03:56:30;;;;;;;2.70;0.73;;;;;;;5.80;100.00;96816.28;5034622;28;20501;-74
2020/12/11 03:59:33;;;;;;;5.85;0.95;;;;;;;5.80;100.00;96813.53;5033361;28;20413;-74
2020/12/11 04:02:36;;;;;;;1.98;0.30;;;;;;;5.81;100.00;96811.50;5034923;28;20053;-74
2020/12/11 04:05:39;;;;;;;0.57;0.20;;;;;;;5.82;100.00;96804.72;5034654;28;20061;-74
2020/12/11 04:08:43;;;;;;;3.35;0.82;;;;;;;5.88;100.00;96813.72;5034396;28;20056;-74
2020/12/11 04:11:46;;;;;;;1.85;0.63;;;;;;;5.87;100.00;96804.69;5034308;28;20555;-74
2020/12/11 04:14:50;;;;;;;0.80;0.38;;;;;;;5.90;100.00;96802.91;5048319;28;20099;-75
2020/12/11 04:17:53;;;;;;;1.95;0.70;;;;;;;5.93;100.00;96797.06;5054301;28;20447;-75
2020/12/11 04:20:56;;;;;;;4.10;0.40;;;;;;;5.92;100.00;96790.06;5054019;28;20056;-75
2020/12/11 04:23:59;;;;;;;2.97;0.93;;;;;;;5.94;100.00;96787.53;5054446;28;20087;-75
2020/12/11 04:27:02;;;;;;;2.72;1.05;;;;;;;5.95;100.00;96789.03;5053910;28;20658;-75
2020/12/11 04:30:05;;;;;;;0.95;0.55;;;;;;;5.97;100.00;96796.81;5054238;28;20102;-75
2020/12/11 04:33:08;;;;;;;11.60;0.93;;;;;;;5.95;100.00;96791.81;5054081;28;20102;-77
2020/12/11 04:36:16;;;;;;;6.50;1.30;;;;;;;5.97;100.00;96778.22;5052843;28;20044;-75
2020/12/11 04:39:21;;;;;;;2.40;1.38;;;;;;;5.98;100.00;96788.00;5050642;28;20063;-75
2020/12/11 04:42:26;;;;;;;2.33;1.08;;;;;;;5.97;100.00;96781.00;5051652;28;20043;-75
2020/12/11 04:45:30;;;;;;;0.73;0.20;;;;;;;5.99;100.00;96778.44;5053944;28;20102;-75
2020/12/11 04:48:34;;;;;;;2.58;0.80;;;;;;;5.99;100.00;96778.44;5054020;28;20473;-75
2020/12/11 04:51:50;;;;;;;5.05;0.75;;;;;;;5.99;100.00;96767.41;5053696;28;20056;-75
2020/12/11 04:54:58;;;;;;;2.08;0.50;;;;;;;6.00;100.00;96766.13;5053561;28;20504;-76
2020/12/11 04:58:05;;;;;;;1.92;0.32;;;;;;;6.04;100.00;96758.28;5053612;28;20471;-76
2020/12/11 05:01:17;;;;;;;2.30;1.08;;;;;;;6.06;100.00;96777.84;5053558;28;20052;-75
2020/12/11 05:04:20;;;;;;;2.15;0.45;;;;;;;6.09;100.00;96768.53;5053657;28;20111;-74
2020/12/11 05:07:22;;;;;;;1.85;0.40;;;;;;;6.11;100.00;96774.28;5053388;28;20107;-75
2020/12/11 05:10:25;;;;;;;5.93;1.33;;;;;;;6.11;100.00;96768.75;5052275;28;20052;-74
2020/12/11 05:13:28;;;;;;;3.63;0.45;;;;;;;6.15;100.00;96764.97;5053353;28;20052;-76
2020/12/11 05:16:31;;;;;;;4.03;1.27;;;;;;;6.17;100.00;96754.13;5053113;28;20047;-74
2020/12/11 05:19:49;;;;;;;2.78;0.70;;;;;;;6.15;100.00;96745.63;5052906;28;20134;-74
2020/12/11 05:22:52;;;;;;;1.27;0.52;;;;;;;6.17;100.00;96741.06;5053221;28;20619;-74
2020/12/11 05:25:59;;;;;;;5.32;0.50;;;;;;;6.16;100.00;96736.06;5053028;28;20397;-74
2020/12/11 05:29:03;;;;;;;1.98;0.60;;;;;;;6.19;100.00;96730.25;5052908;28;20508;-74
2020/12/11 05:32:07;;;;;;;3.72;0.73;;;;;;;6.20;100.00;96736.50;5053037;28;20079;-73
2020/12/11 05:35:19;;;;;;;3.25;0.45;;;;;;;6.22;100.00;96722.91;5052943;28;20071;-74
2020/12/11 05:38:22;;;;;;;2.28;0.75;;;;;;;6.22;100.00;96737.47;5052287;28;20412;-74
2020/12/11 05:41:32;;;;;;;4.13;0.30;;;;;;;6.23;100.00;96721.66;5052634;28;20120;-74
2020/12/11 05:44:36;;;;;;;1.88;0.52;;;;;;;6.24;100.00;96734.22;5052571;28;20075;-74
2020/12/11 05:47:38;;;;;;;0.88;0.28;;;;;;;6.22;100.00;96722.91;5052527;28;20623;-74
2020/12/11 05:50:42;;;;;;;0.63;0.40;;;;;;;6.21;100.00;96718.66;5052351;28;20567;-73
2020/12/11 05:53:45;;;;;;;4.15;0.70;;;;;;;6.20;100.00;96706.88;5052552;28;20127;-75
2020/12/11 05:56:50;;;;;;;4.32;0.60;;;;;;;6.22;100.00;96717.38;5052358;28;20188;-74
2020/12/11 05:59:53;;;;;;;1.25;0.77;;;;;;;6.25;100.00;96713.59;5052144;28;20091;-75
2020/12/11 06:02:56;;;;;;;4.60;0.82;;;;;;;6.23;100.00;96710.59;5052003;28;20099;-74
2020/12/11 06:05:59;;;;;;;2.70;0.35;;;;;;;6.23;100.00;96710.59;5051825;28;20070;-74
2020/12/11 06:09:02;;;;;;;4.28;0.52;;;;;;;6.22;100.00;96707.09;5052380;28;20052;-74
2020/12/11 06:12:07;;;;;;;0.65;0.38;;;;;;;6.23;100.00;96713.38;5051838;28;20048;-74
2020/12/11 06:15:24;;;;;;;5.82;0.22;;;;;;;6.22;100.00;96706.34;5051668;28;20056;-73
2020/12/11 06:18:30;;;;;;;1.55;0.43;;;;;;;6.22;100.00;96711.84;5052170;28;20107;-74
2020/12/11 06:21:33;;;;;;;3.45;0.82;;;;;;;6.22;100.00;96707.09;5051961;28;20056;-76
2020/12/11 06:24:37;;;;;;;1.00;0.60;;;;;;;6.22;100.00;96711.84;5051839;28;20095;-74
2020/12/11 06:27:39;;;;;;;3.65;0.73;;;;;;;6.22;100.00;96712.63;5052237;28;20059;-75
2020/12/11 06:30:53;;;;;;;2.85;0.98;;;;;;;6.22;100.00;96712.63;5052196;28;20636;-75
2020/12/11 06:33:57;;;;;;;1.58;0.77;;;;;;;6.25;100.00;96719.88;5051987;28;20044;-75
2020/12/11 06:37:00;;;;;;;0.45;0.25;;;;;;;6.25;100.00;96713.59;5051689;28;20128;-75
2020/12/11 06:40:03;;;;;;;2.58;0.40;;;;;;;6.27;100.00;96705.53;5051938;28;20052;-75
2020/12/11 06:43:06;;;;;;;4.22;0.57;;;;;;;6.28;100.00;96704.25;5051793;28;20080;-75
2020/12/11 06:46:23;;;;;;;2.88;0.10;;;;;;;6.28;100.00;96712.56;5052002;28;20095;-77
2020/12/11 06:49:26;;;;;;;3.72;0.93;;;;;;;6.25;100.00;96703.28;5051912;28;20631;-75
2020/12/11 06:52:35;;;;;;;4.63;0.70;;;;;;;6.26;100.00;96707.53;5039682;28;20123;-75
2020/12/11 06:55:51;;;;;;;7.10;0.70;;;;;;;6.30;100.00;96707.25;5051520;28;20043;-75
2020/12/11 06:59:24;;;;;;;3.85;0.93;;;;;;;6.30;100.00;96707.25;5050761;28;20064;-76
2020/12/11 07:02:27;;;;;;;2.92;0.32;;;;;;;6.31;100.00;96705.97;5049177;28;20055;-72
2020/12/11 07:05:29;;;;;;;3.47;0.80;;;;;;;6.33;100.00;96700.66;5049772;28;20130;-71
2020/12/11 07:08:33;;;;;;;1.20;0.30;;;;;;;6.33;100.00;96698.66;5049894;28;20091;-71
2020/12/11 07:11:36;;;;;;;9.88;0.98;;;;;;;6.36;100.00;96685.81;5049849;28;20504;-72
2020/12/11 07:14:39;;;;;;;7.60;0.47;;;;;;;6.36;100.00;96683.03;5050500;28;20520;-71
2020/12/11 07:17:42;;;;;;;0.73;0.45;;;;;;;6.36;100.00;96683.03;5048733;28;20090;-71
2020/12/11 07:20:54;;;;;;;1.75;0.43;;;;;;;6.36;100.00;96688.56;5048411;28;20099;-71
2020/12/11 07:23:57;;;;;;;2.65;1.25;;;;;;;6.37;100.00;96690.81;5050515;28;20086;-74
2020/12/11 07:27:06;;;;;;;1.00;0.10;;;;;;;6.37;100.00;96684.53;5048224;28;20091;-74
2020/12/11 07:30:08;;;;;;;1.83;0.50;;;;;;;6.39;100.00;96682.00;5049346;28;20623;-74
2020/12/11 07:33:12;;;;;;;3.35;0.60;;;;;;;6.40;100.00;96694.53;5049884;28;20052;-74
2020/12/11 07:36:15;;;;;;;4.78;0.65;;;;;;;6.39;100.00;96677.19;5053896;28;20130;-74
2020/12/11 07:39:18;;;;;;;2.20;0.75;;;;;;;6.39;100.00;96676.47;5054489;28;20056;-74
2020/12/11 07:42:24;;;;;;;0.10;0.10;;;;;;;6.39;100.00;96684.78;5052044;28;20388;-72
2020/12/11 07:45:33;;;;;;;1.33;0.65;;;;;;;6.38;100.00;96686.03;5052510;28;20036;-72
2020/12/11 07:48:47;;;;;;;0.73;0.47;;;;;;;6.40;100.00;96686.25;5053528;28;20040;-72
2020/12/11 07:51:51;;;;;;;1.17;0.40;;;;;;;6.41;100.00;96680.19;5051938;28;20056;-71
2020/12/11 07:54:54;;;;;;;2.58;0.50;;;;;;;6.42;100.00;96689.97;5053180;28;20047;-73
2020/12/11 07:57:58;;;;;;;0.47;0.13;;;;;;;6.41;100.00;96690.53;5053452;28;20505;-72
2020/12/11 08:01:02;;;;;;;4.43;0.68;;;;;;;6.42;100.00;96692.00;5051186;28;20060;-72
2020/12/11 08:04:05;;;;;;;9.50;0.45;;;;;;;6.44;100.00;96694.97;5052016;28;20488;-72
2020/12/11 08:07:21;;;;;;;3.72;0.55;;;;;;;6.46;100.00;96697.97;5052149;28;20060;-72
2020/12/11 08:10:33;;;;;;;1.10;0.52;;;;;;;6.48;100.00;96703.72;5051622;28;20136;-71
2020/12/11 08:13:36;;;;;;;5.03;0.90;;;;;;;6.48;100.00;96712.75;5054242;28;20416;-71
2020/12/11 08:16:38;;;;;;;8.07;0.95;;;;;;;6.50;100.00;96710.22;5054158;28;20103;-73
2020/12/11 08:19:43;;;;;;;4.18;1.50;;;;;;;6.50;100.00;96709.47;5053946;28;20052;-73
2020/12/11 08:22:46;;;;;;;2.83;0.60;;;;;;;6.52;100.00;96709.72;5054279;28;20135;-72
2020/12/11 08:26:07;;;;;;;0.10;0.10;;;;;;;6.52;100.00;96704.19;5053947;28;20052;-73
2020/12/11 08:29:10;;;;;;;10.55;1.98;;;;;;;6.53;100.00;96720.22;5054242;28;20456;-76
2020/12/11 08:32:25;;;;;;;0.10;0.10;;;;;;;6.53;100.00;96714.69;5054322;28;20195;-76
2020/12/11 08:35:29;;;;;;;0.95;0.30;;;;;;;6.57;100.00;96714.38;5054100;28;20091;-75
2020/12/11 08:38:32;;;;;;;1.13;0.85;;;;;;;6.55;100.00;96722.47;5054066;28;20110;-76
2020/12/11 08:41:42;;;;;;;3.60;0.93;;;;;;;6.56;100.00;96713.63;5041396;28;20055;-76
2020/12/11 08:48:42;;;;;;;1.98;0.50;;;;;;;6.56;100.00;96718.44;4992381;28;20158;-73
2020/12/11 08:51:45;;;;;;;0.65;0.10;;;;;;;6.57;100.00;96726.19;4996045;28;20090;-75
2020/12/11 08:54:51;;;;;;;0.10;0.10;;;;;;;6.58;100.00;96721.44;5053513;28;20504;-76
2020/12/11 08:57:54;;;;;;;0.98;0.75;;;;;;;6.60;100.00;96718.88;5053601;28;20072;-76
2020/12/11 09:00:57;;;;;;;5.38;0.40;;;;;;;6.61;100.00;96717.59;5053411;28;20072;-75
2020/12/11 09:04:00;;;;;;;0.20;0.15;;;;;;;6.63;100.00;96709.53;5053465;28;20100;-75
2020/12/11 09:07:02;;;;;;;0.47;0.20;;;;;;;6.65;100.00;96706.97;5053567;28;20078;-75
2020/12/11 09:10:06;;;;;;;0.15;0.15;;;;;;;6.65;100.00;96715.28;5053170;28;20174;-76
2020/12/11 09:13:09;;;;;;;0.88;0.40;;;;;;;6.68;100.00;96722.53;5053225;28;20048;-75
2020/12/11 09:16:12;;;;;;;0.30;0.17;;;;;;;6.67;100.00;96721.78;5053307;28;20896;-76
2020/12/11 09:19:15;;;;;;;3.92;1.15;;;;;;;6.70;100.00;96731.03;5053429;28;20102;-76
2020/12/11 09:22:18;;;;;;;1.30;0.47;;;;;;;6.70;100.00;96731.78;5053206;28;20079;-76
2020/12/11 09:25:21;;;;;;;0.20;0.20;;;;;;;6.73;100.00;96738.28;5053350;28;20079;-76
2020/12/11 09:28:25;;;;;;;0.68;0.22;;;;;;;6.73;100.00;96733.53;5052933;28;20052;-76
2020/12/11 09:31:29;;;;;;;1.38;0.10;;;;;;;6.74;100.00;96728.72;5052770;28;20095;-73
2020/12/11 09:34:34;;;;;;;1.38;0.57;;;;;;;6.74;100.00;96740.53;5053026;28;20436;-75
2020/12/11 09:37:37;;;;;;;0.50;0.35;;;;;;;6.75;100.00;96744.03;5052876;28;20110;-74
2020/12/11 09:41:00;;;;;;;9.07;1.15;;;;;;;6.77;100.00;96744.28;5052681;28;20504;-73
2020/12/11 09:44:37;;;;;;;0.65;0.25;;;;;;;6.82;100.00;96752.47;5052789;28;20068;-73
2020/12/11 09:50:36;;;;;;;0.50;0.25;;;;;;;6.98;100.00;96742.44;5052952;28;20126;-72
2020/12/11 09:56:49;;;;;;;3.22;0.45;;;;;;;7.10;100.00;96745.78;5052258;28;20509;-73
2020/12/11 09:59:55;;;;;;;2.05;0.10;;;;;;;7.14;100.00;96746.22;5051996;28;20060;-73
2020/12/11 10:03:02;;;;;;;7.95;0.75;;;;;;;7.16;100.00;96744.41;5052189;28;20052;-73
2020/12/11 10:06:08;;;;;;;0.20;0.10;;;;;;;7.19;100.00;96737.81;5052408;28;20098;-73
2020/12/11 10:09:11;;;;;;;1.60;0.40;;;;;;;7.24;100.00;96741.75;5039936;28;20051;-73
2020/12/11 10:12:16;;;;;;;0.20;0.20;;;;;;;7.27;100.00;96741.47;5051717;28;20052;-73
2020/12/11 10:15:22;;;;;;;2.25;1.08;;;;;;;7.33;100.00;96744.13;5052361;28;20052;-73
2020/12/11 10:18:26;;;;;;;0.38;0.38;;;;;;;7.37;100.00;96742.53;5040105;28;20047;-72
2020/12/11 10:21:30;;;;;;;0.20;0.00;;;;;;;7.42;100.00;96747.25;5051989;28;20044;-72
2020/12/11 10:24:33;;;;;;;0.90;0.52;;;;;;;7.42;100.00;96746.50;5052076;28;20120;-73
2020/12/11 10:27:37;;;;;;;1.75;0.10;;;;;;;7.46;100.00;96742.13;5052228;28;20512;-72
2020/12/11 10:30:39;;;;;;;0.17;0.13;;;;;;;7.47;100.00;96745.66;5050847;28;20094;-72
2020/12/11 10:33:42;;;;;;;0.13;0.13;;;;;;;7.50;100.00;96747.34;5051318;28;20091;-72
2020/12/11 10:36:45;;;;;;;1.58;0.40;;;;;;;7.52;100.00;96742.78;5051629;28;20052;-72
2020/12/11 10:39:48;;;;;;;0.65;0.20;;;;;;;7.56;100.00;96748.00;5051452;28;20067;-72
2020/12/11 10:42:51;;;;;;;1.45;0.47;;;;;;;7.59;100.00;96750.47;5051736;28;20059;-72
2020/12/11 10:45:53;;;;;;;0.50;0.10;;;;;;;7.71;100.00;96744.72;5051188;28;20484;-72
2020/12/11 10:48:56;;;;;;;0.40;0.22;;;;;;;7.79;100.00;96742.81;5053143;28;20417;-73
2020/12/11 10:51:59;;;;;;;1.40;0.55;;;;;;;7.81;100.00;96734.72;5051698;28;20052;-72
2020/12/11 10:55:02;;;;;;;0.70;0.60;;;;;;;7.81;100.00;96737.47;5051400;28;20488;-72
2020/12/11 10:58:05;;;;;;;1.60;0.57;;;;;;;7.82;100.00;96730.66;5051362;28;20397;-72
2020/12/11 11:01:10;;;;;;;3.00;0.68;;;;;;;7.77;100.00;96732.25;5051211;28;20048;-72
2020/12/11 11:04:13;;;;;;;2.92;0.40;;;;;;;7.75;100.00;96728.53;5051399;28;20045;-72
2020/12/11 11:07:21;;;;;;;3.90;0.50;;;;;;;7.73;100.00;96733.84;5051012;28;20047;-72
2020/12/11 11:10:33;;;;;;;1.80;0.30;;;;;;;7.73;100.00;96731.09;5054660;28;20047;-72
2020/12/11 11:29:15;;;;;;;2.97;0.63;;;;;;;7.90;100.00;96723.19;5055422;28;20047;-72
2020/12/11 11:32:18;;;;;;;1.67;0.63;;;;;;;7.96;100.00;96719.03;5055041;28;20397;-72
2020/12/11 11:35:22;;;;;;;2.13;0.28;;;;;;;7.98;100.00;96724.03;5055130;28;20056;-72
2020/12/11 11:38:25;;;;;;;1.80;1.13;;;;;;;7.91;100.00;96724.69;5055077;28;20098;-72
2020/12/11 11:41:47;;;;;;;1.45;0.70;;;;;;;7.93;100.00;96722.13;5055309;28;20409;-72
2020/12/11 11:44:59;;;;;;;;;;;;;;;7.96;100.00;96726.59;5055466;28;20102;-72
2020/12/11 11:48:06;;;;;;;8.88;1.73;;;;;;;7.91;100.00;96719.13;5055074;28;19939;-72
2020/12/11 11:51:18;;;;;;;1.73;0.93;;;;;;;7.92;100.00;96715.09;5054807;28;20079;-72
2020/12/11 11:54:21;;;;;;;7.70;1.13;;;;;;;7.99;100.00;96725.53;5054774;28;20098;-73
2020/12/11 11:57:28;;;;;;;0.95;0.52;;;;;;;8.12;100.00;96720.00;5054963;28;20064;-72
2020/12/11 12:00:31;;;;;;;5.28;0.95;;;;;;;8.23;100.00;96722.50;5054676;28;20103;-72
2020/12/11 12:03:34;;;;;;;1.77;0.60;;;;;;;8.23;100.00;96728.81;5054733;28;20551;-71
2020/12/11 12:06:37;;;;;;;2.75;0.32;;;;;;;8.20;100.00;96729.13;5054444;28;20052;-72
2020/12/11 12:09:40;;;;;;;0.68;0.30;;;;;;;8.13;100.00;96719.44;5054426;28;20047;-75
2020/12/11 12:12:43;;;;;;;4.22;1.02;;;;;;;8.09;100.00;96723.81;5054203;28;20051;-75
2020/12/11 12:15:49;;;;;;;6.72;1.17;;;;;;;8.05;100.00;96723.41;5034411;28;20048;-74
2020/12/11 12:18:56;;;;;;;1.75;0.63;;;;;;;8.05;100.00;96726.19;5034318;28;20480;-75
2020/12/11 12:31:52;;;;;;;2.03;0.60;;;;;;;8.19;100.00;96735.94;5034416;28;19940;-75
2020/12/11 12:38:00;;;;;;;10.32;1.17;;;;;;;8.19;100.00;96727.63;5034382;28;20087;-74
2020/12/11 12:44:28;;;;;;;5.25;0.63;;;;;;;8.22;100.00;96737.66;5033808;28;20056;-74
2020/12/11 12:47:31;;;;;;;2.95;0.60;;;;;;;8.29;100.00;96739.81;5034017;28;20518;-74
2020/12/11 12:50:34;;;;;;;0.95;0.32;;;;;;;8.39;100.00;96740.88;5033651;28;20060;-75
2020/12/11 12:53:37;;;;;;;1.58;1.48;;;;;;;8.52;100.00;96742.84;5034024;28;20052;-76
2020/12/11 12:56:50;;;;;;;2.13;0.25;;;;;;;8.53;100.00;96739.56;5033625;28;20513;-76
2020/12/11 12:59:59;;;;;;;4.95;0.55;;;;;;;8.49;100.00;96739.13;5033662;28;20055;-76
2020/12/11 13:06:08;;;;;;;5.68;0.68;;;;;;;8.42;100.00;96744.59;5033852;28;20053;-76
2020/12/11 13:09:11;;;;;;;14.15;1.17;;;;;;;8.36;100.00;96744.69;5032953;28;20111;-75
2020/12/11 13:12:14;;;;;;;3.90;0.50;;;;;;;8.30;100.00;96749.63;5033092;28;20095;-75
2020/12/11 13:15:17;;;;;;;3.83;0.52;;;;;;;8.25;100.00;96754.00;5050063;28;20477;-73
2020/12/11 13:18:21;;;;;;;7.85;1.05;;;;;;;8.23;100.00;96750.97;5052599;28;20075;-73
2020/12/11 13:21:30;;;;;;;10.90;1.02;;;;;;;8.15;100.00;96752.16;5049893;28;20382;-73
2020/12/11 13:27:55;;;;;;;0.80;0.43;;;;;;;8.09;100.00;96759.84;5051994;28;20106;-73
2020/12/11 13:30:58;;;;;;;2.90;0.80;;;;;;;8.10;100.00;96764.13;5051187;28;20052;-74
2020/12/11 13:34:01;;;;;;;1.23;0.30;;;;;;;8.22;100.00;96760.59;5051659;28;20084;-73
2020/12/11 13:37:03;;;;;;;0.75;0.38;;;;;;;8.27;100.00;96765.28;5052961;28;20052;-73
2020/12/11 13:40:07;;;;;;;1.45;0.55;;;;;;;8.21;100.00;96766.66;5052800;28;20087;-73
2020/12/11 13:43:10;;;;;;;10.13;0.77;;;;;;;8.09;100.00;96763.38;5052763;28;20412;-72
2020/12/11 13:46:13;;;;;;;14.95;0.52;;;;;;;7.97;100.00;96762.09;5052422;28;20388;-73
2020/12/11 13:49:18;;;;;;;1.67;0.63;;;;;;;7.85;100.00;96763.59;5052887;28;20405;-73
2020/12/11 13:52:21;;;;;;;1.25;0.40;;;;;;;7.79;100.00;96773.28;5052460;28;20072;-73
2020/12/11 13:55:24;;;;;;;2.38;0.65;;;;;;;7.79;100.00;96764.97;5052425;28;20103;-73
2020/12/11 13:58:27;;;;;;;3.17;0.85;;;;;;;7.80;100.00;96772.72;5052737;28;20191;-73
2020/12/11 14:01:30;;;;;;;14.65;0.70;;;;;;;7.82;100.00;96775.00;5052141;28;20099;-74
2020/12/11 14:04:33;;;;;;;0.57;0.57;;;;;;;7.81;100.00;96776.25;5052331;28;20051;-74
2020/12/11 14:07:36;;;;;;;1.38;0.40;;;;;;;7.81;100.00;96777.00;5052017;28;20048;-74
2020/12/11 14:10:39;;;;;;;2.58;0.80;;;;;;;7.78;100.00;96771.78;5052014;28;20060;-74
2020/12/11 14:13:42;;;;;;;0.70;0.35;;;;;;;7.75;100.00;96776.38;5051999;28;20115;-74
2020/12/11 14:16:50;;;;;;;4.43;1.02;;;;;;;7.71;100.00;96789.75;5052255;28;20176;-74
2020/12/11 14:23:25;;;;;;;;;;;;;;;7.63;100.00;96788.91;5052258;28;20083;-74
2020/12/11 14:26:28;;;;;;;1.95;0.35;;;;;;;7.64;100.00;96802.22;5051912;28;19924;-74
2020/12/11 14:29:31;;;;;;;10.10;0.88;;;;;;;7.66;100.00;96790.63;5052214;28;20048;-74
2020/12/11 14:32:34;;;;;;;11.90;0.93;;;;;;;7.69;100.00;96800.63;5051947;28;20406;-74
2020/12/11 14:35:38;;;;;;;0.22;0.10;;;;;;;7.65;100.00;96803.72;5052016;28;20044;-74
2020/12/11 14:41:44;;;;;;;10.20;1.00;;;;;;;7.46;100.00;96802.28;5051836;28;20132;-74
2020/12/11 14:44:47;;;;;;;2.33;0.77;;;;;;;7.30;100.00;96815.13;5051229;28;20635;-74
2020/12/11 14:47:50;;;;;;;5.35;0.73;;;;;;;7.13;100.00;96814.63;5051675;28;20448;-74
2020/12/11 14:50:53;;;;;;;3.25;0.70;;;;;;;7.01;100.00;96824.38;5051559;28;20051;-74
2020/12/11 14:53:56;;;;;;;1.63;0.70;;;;;;;6.88;100.00;96832.63;5051504;28;20154;-74
2020/12/11 14:57:01;;;;;;;7.00;0.57;;;;;;;6.75;100.00;96825.00;5050008;28;20075;-74
2020/12/11 15:00:06;;;;;;;4.80;0.43;;;;;;;6.68;100.00;96827.59;5049726;28;20456;-74
2020/12/11 15:03:09;;;;;;;8.93;1.05;;;;;;;6.57;100.00;96830.50;5049789;28;20047;-75
2020/12/11 15:06:13;;;;;;;2.28;0.77;;;;;;;6.46;100.00;96844.47;5049985;28;20555;-74
2020/12/11 15:09:17;;;;;;;1.42;1.33;;;;;;;6.40;100.00;96841.78;5050107;28;20063;-74
2020/12/11 15:12:20;;;;;;;5.45;1.05;;;;;;;6.35;100.00;96847.34;5050135;28;20056;-73
2020/12/11 15:15:23;;;;;;;4.03;0.73;;;;;;;6.31;100.00;96841.38;5051546;28;20052;-73
2020/12/11 15:18:25;;;;;;;5.95;1.20;;;;;;;6.32;100.00;96859.47;5051390;28;20052;-74
2020/12/11 15:21:28;;;;;;;0.45;0.38;;;;;;;6.36;100.00;96859.91;5051023;28;20048;-74
2020/12/11 15:24:31;;;;;;;4.97;0.65;;;;;;;6.35;100.00;96863.94;5051071;28;20405;-74